Time;durP1;ratioP1;P1;durP2;ratioP2;P2;SDS_P1;SDS_P2;PMS_P1;PMS_P2;Temp;Humidity;BMP_temperature;BMP_pressure;BME280_temperature;BME280_humidity;BME280_pressure;Samples;Min_cycle;Max_cycle;Signal;HPM_P1;HPM_P2
2021/05/18 00:00:38;;;;;;;0.70;0.70;;;;;;;9.30;90.73;97476.91;4982910;28;20210;-70
2021/05/18 00:03:14;;;;;;;1.33;1.10;;;;;;;9.34;91.15;97479.03;4986525;28;20239;-68
2021/05/18 00:05:46;;;;;;;1.00;1.00;;;;;;;9.38;90.93;97474.22;4986296;28;20205;-72
2021/05/18 00:08:14;;;;;;;1.37;0.90;;;;;;;9.32;91.57;97473.09;4986483;28;20217;-70
2021/05/18 00:13:29;;;;;;;1.30;1.00;;;;;;;9.27;92.23;97480.69;4985943;28;20684;-69
2021/05/18 00:15:58;;;;;;;1.10;1.00;;;;;;;9.18;92.51;97485.16;4985957;28;20209;-71
2021/05/18 00:18:27;;;;;;;2.40;1.03;;;;;;;9.09;92.93;97480.88;4986211;28;20202;-69
2021/05/18 00:20:56;;;;;;;1.27;0.90;;;;;;;9.05;93.51;97487.50;4982561;28;20345;-70
2021/05/18 00:23:23;;;;;;;0.90;0.90;;;;;;;8.99;93.92;97499.56;4984825;28;20205;-70
2021/05/18 00:25:51;;;;;;;1.23;1.00;;;;;;;9.01;93.76;97496.75;4985554;28;20675;-68
2021/05/18 00:28:19;;;;;;;0.90;0.90;;;;;;;9.03;93.66;97503.50;4984851;28;20226;-71
2021/05/18 00:30:47;;;;;;;1.20;1.20;;;;;;;9.09;93.19;97500.22;4985448;28;20323;-71
2021/05/18 00:33:16;;;;;;;1.67;1.20;;;;;;;9.03;92.94;97508.00;4985306;28;20210;-70
2021/05/18 00:35:45;;;;;;;1.10;1.10;;;;;;;8.96;94.42;97503.38;4984566;28;20697;-70
2021/05/18 00:38:15;;;;;;;1.37;1.27;;;;;;;8.97;93.93;97514.75;4983508;28;20597;-68
2021/05/18 00:40:43;;;;;;;1.67;1.40;;;;;;;9.01;94.58;97507.34;4984919;28;20819;-71
2021/05/18 00:43:12;;;;;;;1.53;0.90;;;;;;;9.04;94.07;97510.44;4985383;28;20209;-70
2021/05/18 00:45:41;;;;;;;1.23;1.23;;;;;;;9.02;93.29;97506.34;4985526;28;20716;-70
2021/05/18 00:48:09;;;;;;;1.37;1.23;;;;;;;9.04;93.43;97513.09;4984655;28;20331;-71
2021/05/18 00:50:39;;;;;;;1.60;1.47;;;;;;;9.09;93.25;97507.31;4985461;28;20205;-67
2021/05/18 00:53:07;;;;;;;1.23;1.20;;;;;;;9.16;92.75;97518.88;4984279;28;20214;-70
2021/05/18 00:55:41;;;;;;;1.90;1.60;;;;;;;9.16;93.22;97521.53;4985537;28;20209;-70
2021/05/18 00:58:32;;;;;;;1.53;1.40;;;;;;;9.15;93.87;97521.69;4985017;28;20208;-69
2021/05/18 01:01:03;;;;;;;3.60;2.13;;;;;;;9.15;93.48;97521.69;4981696;28;20249;-70
2021/05/18 01:03:32;;;;;;;1.40;1.30;;;;;;;9.19;92.96;97523.81;4984377;28;20216;-69
2021/05/18 01:08:47;;;;;;;1.50;1.50;;;;;;;9.20;93.14;97522.84;4983252;28;20218;-69
2021/05/18 01:11:17;;;;;;;2.20;1.60;;;;;;;9.25;92.95;97520.50;4983333;28;20275;-69
2021/05/18 01:13:44;;;;;;;1.53;1.47;;;;;;;9.30;92.16;97527.94;4987306;28;20201;-71
2021/05/18 01:16:12;;;;;;;1.80;1.70;;;;;;;9.34;92.22;97525.81;4981903;28;20586;-69
2021/05/18 01:18:41;;;;;;;1.70;1.60;;;;;;;9.31;91.92;97536.72;4984991;28;20562;-71
2021/05/18 01:21:10;;;;;;;1.70;1.60;;;;;;;9.27;92.83;97537.03;4983360;28;20627;-68
2021/05/18 01:23:39;;;;;;;1.50;1.50;;;;;;;9.29;92.09;97539.53;4984954;28;20287;-71
2021/05/18 01:26:08;;;;;;;2.07;1.80;;;;;;;9.27;92.50;97536.22;4984661;28;20225;-70
2021/05/18 01:28:35;;;;;;;1.60;1.50;;;;;;;9.36;92.39;97539.69;4986446;28;20226;-67
2021/05/18 01:31:05;;;;;;;1.50;1.40;;;;;;;9.43;91.70;97542.47;4981248;28;20226;-69
2021/05/18 01:33:33;;;;;;;1.60;1.50;;;;;;;9.41;91.24;97547.94;4984430;28;20206;-70
2021/05/18 01:36:07;;;;;;;1.60;1.50;;;;;;;9.32;91.65;97548.97;4980893;28;20214;-71
2021/05/18 01:38:40;;;;;;;1.87;1.77;;;;;;;9.36;91.11;97550.28;4983955;28;20213;-70
2021/05/18 01:43:55;;;;;;;1.97;1.57;;;;;;;9.33;91.12;97551.41;4984188;28;20224;-69
2021/05/18 01:46:24;;;;;;;1.70;1.60;;;;;;;9.31;91.82;97558.69;4983706;28;20212;-68
2021/05/18 01:48:57;;;;;;;2.27;1.47;;;;;;;9.33;91.48;97562.00;4982895;28;20246;-67
2021/05/18 01:51:26;;;;;;;1.37;1.10;;;;;;;9.33;91.74;97566.47;4983040;28;20488;-69
2021/05/18 01:53:56;;;;;;;1.40;1.30;;;;;;;9.36;91.40;97566.13;4981001;28;20666;-71
2021/05/18 01:56:43;;;;;;;2.13;1.30;;;;;;;9.34;91.08;97563.66;4982697;28;20205;-69
2021/05/18 01:59:13;;;;;;;2.20;2.10;;;;;;;9.32;91.83;97570.09;4983250;28;20877;-70
2021/05/18 02:01:41;;;;;;;2.03;1.53;;;;;;;9.37;91.28;97563.31;4981356;28;20713;-69
2021/05/18 02:04:17;;;;;;;1.00;1.00;;;;;;;9.34;90.93;97570.78;4981894;28;20234;-69
2021/05/18 02:06:44;;;;;;;1.10;1.10;;;;;;;9.28;91.76;97569.59;4982278;28;20590;-70
2021/05/18 02:09:13;;;;;;;1.50;1.40;;;;;;;9.29;91.58;97573.91;4981203;28;20222;-69
2021/05/18 02:11:40;;;;;;;1.23;1.23;;;;;;;9.32;91.86;97581.50;4982309;28;20602;-70
2021/05/18 02:14:13;;;;;;;1.20;1.20;;;;;;;9.35;91.96;97580.34;4984255;28;20214;-69
2021/05/18 02:16:42;;;;;;;3.30;1.43;;;;;;;9.41;90.63;97590.25;4981874;28;20216;-70
2021/05/18 02:19:22;;;;;;;1.30;1.20;;;;;;;9.43;90.58;97585.63;4983570;28;20209;-70
2021/05/18 02:22:04;;;;;;;1.60;1.50;;;;;;;9.37;90.90;97588.94;4983164;28;20240;-70
2021/05/18 02:24:42;;;;;;;2.23;1.40;;;;;;;9.32;90.46;97593.91;4982934;28;20634;-71
2021/05/18 02:27:09;;;;;;;1.93;1.40;;;;;;;9.36;91.14;97600.50;4982366;28;20394;-67
2021/05/18 02:29:37;;;;;;;2.03;1.10;;;;;;;9.37;91.26;97595.03;4981519;28;20233;-69
2021/05/18 02:32:05;;;;;;;1.10;1.10;;;;;;;9.35;91.50;97596.22;4981323;28;20244;-69
2021/05/18 02:34:33;;;;;;;1.53;1.43;;;;;;;9.30;91.23;97602.00;4983041;28;20213;-69
2021/05/18 02:37:02;;;;;;;2.07;1.57;;;;;;;9.32;91.09;97609.78;4983654;28;20206;-67
2021/05/18 02:39:30;;;;;;;1.20;1.20;;;;;;;9.34;91.38;97600.66;4981969;28;20746;-73
2021/05/18 02:41:58;;;;;;;1.17;1.07;;;;;;;9.34;90.82;97603.31;4981829;28;20240;-71
2021/05/18 02:44:30;;;;;;;3.27;1.23;;;;;;;9.29;91.81;97607.47;4982964;28;21082;-72
2021/05/18 02:49:43;;;;;;;2.20;1.30;;;;;;;9.33;91.37;97606.13;4980677;28;20233;-69
2021/05/18 02:52:10;;;;;;;1.60;1.30;;;;;;;9.33;90.43;97606.13;4981748;28;20241;-69
2021/05/18 02:54:38;;;;;;;1.47;1.37;;;;;;;9.38;90.15;97607.28;4981583;28;20206;-72
2021/05/18 02:57:09;;;;;;;1.00;1.00;;;;;;;9.32;90.91;97607.13;4981628;28;20209;-68
2021/05/18 02:59:37;;;;;;;1.20;1.10;;;;;;;9.23;91.05;97616.88;4981559;28;20599;-70
2021/05/18 03:02:04;;;;;;;1.00;1.00;;;;;;;9.20;91.81;97602.16;4980342;28;20637;-72
2021/05/18 03:04:32;;;;;;;1.77;1.17;;;;;;;9.25;90.91;97605.13;4982102;28;20209;-72
2021/05/18 03:06:59;;;;;;;1.20;1.00;;;;;;;9.36;90.35;97606.63;4982106;28;20209;-70
2021/05/18 03:09:27;;;;;;;1.37;1.27;;;;;;;9.25;90.84;97606.97;4982028;28;20261;-71
2021/05/18 03:11:55;;;;;;;1.17;1.17;;;;;;;9.34;90.78;97610.44;4982275;28;20225;-68
2021/05/18 03:14:24;;;;;;;1.30;1.20;;;;;;;9.26;91.75;97617.34;4980610;28;20206;-70
2021/05/18 03:16:51;;;;;;;1.40;1.30;;;;;;;9.24;91.46;97613.22;4983165;28;20201;-69
2021/05/18 03:19:19;;;;;;;1.23;1.20;;;;;;;9.23;91.75;97609.75;4981670;28;20202;-67
2021/05/18 03:21:46;;;;;;;1.33;1.30;;;;;;;9.21;92.15;97616.22;4983713;28;20233;-70
2021/05/18 03:24:14;;;;;;;1.03;1.03;;;;;;;9.24;92.55;97614.03;4980343;28;20555;-70
2021/05/18 03:26:45;;;;;;;1.60;1.50;;;;;;;9.29;91.76;97613.56;4982247;28;20717;-69
2021/05/18 03:29:16;;;;;;;2.97;1.70;;;;;;;9.33;91.87;97608.78;4979860;28;20248;-70
2021/05/18 03:34:35;;;;;;;1.53;1.43;;;;;;;9.14;93.25;97618.69;4983957;28;20213;-70
2021/05/18 03:37:07;;;;;;;1.87;1.37;;;;;;;9.11;93.38;97619.84;4984985;28;20228;-67
2021/05/18 03:39:35;;;;;;;1.37;1.27;;;;;;;9.21;92.49;97624.16;4984954;28;20217;-71
2021/05/18 03:42:07;;;;;;;1.47;1.37;;;;;;;9.17;93.00;97628.09;4982850;28;20268;-73
2021/05/18 03:53:15;;;;;;;1.47;1.37;;;;;;;9.20;91.88;97615.38;4981179;28;20233;-72
2021/05/18 03:58:39;;;;;;;2.93;1.47;;;;;;;9.27;91.72;97619.00;4980605;28;20579;-70
2021/05/18 04:04:02;;;;;;;2.00;1.23;;;;;;;9.29;90.62;97625.97;4981694;28;20547;-71
2021/05/18 04:17:34;;;;;;;1.60;1.50;;;;;;;9.30;91.58;97625.78;4984915;28;20210;-70
2021/05/18 04:20:14;;;;;;;0.90;0.90;;;;;;;9.45;90.09;97622.47;4984780;28;20218;-69
2021/05/18 04:25:53;;;;;;;1.00;1.00;;;;;;;9.36;90.97;97633.06;4974276;28;20569;-71
2021/05/18 04:42:49;;;;;;;1.30;1.30;;;;;;;9.57;88.75;97658.19;4984680;28;20226;-70
2021/05/18 04:48:28;;;;;;;1.40;1.30;;;;;;;9.53;89.40;97662.97;4981487;28;20229;-77
2021/05/18 04:51:08;;;;;;;1.60;1.50;;;;;;;9.52;89.07;97653.41;4981015;28;20773;-73
2021/05/18 04:53:50;;;;;;;1.40;1.40;;;;;;;9.52;89.91;97660.53;4985724;28;20204;-76
2021/05/18 04:59:13;;;;;;;1.33;1.33;;;;;;;9.53;90.37;97678.03;4896107;28;20225;-75
2021/05/18 05:01:48;;;;;;;1.70;1.60;;;;;;;9.60;89.58;97664.97;4983233;28;20732;-75
2021/05/18 05:06:58;;;;;;;1.70;1.60;;;;;;;9.56;89.29;97675.88;4981240;28;20205;-76
2021/05/18 05:09:29;;;;;;;1.40;1.27;;;;;;;9.50;88.80;97681.84;4984217;28;20229;-73
2021/05/18 05:14:42;;;;;;;2.50;1.90;;;;;;;9.58;88.76;97694.25;4983837;28;20670;-75
2021/05/18 05:17:10;;;;;;;1.37;1.37;;;;;;;9.55;89.00;97697.22;4984025;28;20212;-74
2021/05/18 05:19:42;;;;;;;2.13;1.70;;;;;;;9.58;88.11;97693.41;4986619;28;20204;-74
2021/05/18 05:22:09;;;;;;;1.60;1.50;;;;;;;9.57;88.44;97692.59;4984125;28;20709;-76
2021/05/18 05:24:38;;;;;;;1.87;1.77;;;;;;;9.54;88.39;97709.59;4981312;28;20301;-75
2021/05/18 05:27:05;;;;;;;1.73;1.63;;;;;;;9.36;90.32;97699.19;4982222;28;20221;-75
2021/05/18 05:29:42;;;;;;;1.33;1.33;;;;;;;9.52;89.59;97703.66;4981387;28;20715;-77
2021/05/18 05:32:09;;;;;;;1.53;1.53;;;;;;;9.42;90.17;97703.00;4982032;28;20237;-74
2021/05/18 05:34:37;;;;;;;2.27;1.77;;;;;;;9.44;90.11;97695.72;4981053;28;20305;-73
2021/05/18 05:37:04;;;;;;;2.10;1.70;;;;;;;9.46;89.64;97714.06;4983031;28;20214;-74
2021/05/18 05:39:32;;;;;;;1.13;1.13;;;;;;;9.43;89.92;97711.75;4982980;28;21767;-74
2021/05/18 05:42:00;;;;;;;2.20;1.63;;;;;;;9.43;90.71;97712.59;4983167;28;20236;-74
2021/05/18 05:44:28;;;;;;;1.20;1.20;;;;;;;9.56;89.39;97712.91;4984022;28;20205;-75
2021/05/18 05:46:55;;;;;;;1.67;1.57;;;;;;;9.45;90.20;97715.03;4983646;28;20206;-76
2021/05/18 05:49:22;;;;;;;2.77;1.83;;;;;;;9.58;89.18;97712.75;4982228;28;20236;-73
2021/05/18 05:51:50;;;;;;;2.20;1.30;;;;;;;9.50;90.45;97713.56;4982730;28;20222;-76
2021/05/18 05:54:19;;;;;;;3.03;2.07;;;;;;;9.58;89.18;97722.50;4983602;28;20217;-76
2021/05/18 05:56:46;;;;;;;1.20;1.17;;;;;;;9.55;89.95;97731.63;4982734;28;20335;-73
2021/05/18 05:59:18;;;;;;;1.57;1.47;;;;;;;9.59;89.24;97727.66;4983435;28;20206;-75
2021/05/18 06:01:47;;;;;;;1.70;1.60;;;;;;;9.70;89.07;97724.66;4983993;28;20614;-78
2021/05/18 06:04:14;;;;;;;1.43;1.33;;;;;;;9.79;88.48;97732.59;4982569;28;20824;-74
2021/05/18 06:06:42;;;;;;;1.37;1.30;;;;;;;9.92;86.69;97732.94;4982103;28;20821;-74
2021/05/18 06:09:10;;;;;;;1.50;1.40;;;;;;;9.95;86.57;97729.13;4982579;28;20209;-74
2021/05/18 06:11:45;;;;;;;1.17;1.17;;;;;;;10.06;87.08;97734.09;4984172;28;20233;-74
2021/05/18 06:14:29;;;;;;;1.70;1.60;;;;;;;10.17;86.85;97742.69;4984079;28;20217;-73
2021/05/18 06:17:23;;;;;;;1.43;1.40;;;;;;;9.99;87.09;97741.03;4986070;28;20222;-76
2021/05/18 06:42:32;;;;;;;1.10;1.10;;;;;;;10.22;85.77;97753.59;4983183;28;20236;-73
2021/05/18 06:47:45;;;;;;;1.50;1.40;;;;;;;10.52;84.54;97759.22;4982627;28;20213;-74
2021/05/18 06:50:28;;;;;;;1.40;1.40;;;;;;;10.48;84.15;97763.19;4982457;28;20225;-74
2021/05/18 06:52:57;;;;;;;1.10;1.10;;;;;;;10.47;84.36;97772.13;4980592;28;20237;-75
2021/05/18 06:55:27;;;;;;;1.10;1.10;;;;;;;10.67;83.66;97770.75;4982552;28;20220;-77
2021/05/18 06:58:03;;;;;;;1.33;1.23;;;;;;;10.66;84.47;97770.94;4980220;28;20206;-74
2021/05/18 07:00:31;;;;;;;1.50;1.40;;;;;;;10.66;82.99;97768.28;4980919;28;20400;-76
2021/05/18 07:02:59;;;;;;;1.20;1.20;;;;;;;10.71;83.59;97774.72;4981749;28;20324;-75
2021/05/18 07:05:33;;;;;;;1.40;1.40;;;;;;;10.74;83.04;97784.16;4981386;28;20598;-75
2021/05/18 07:08:10;;;;;;;2.73;1.43;;;;;;;10.85;83.17;97773.19;4982945;28;20398;-74
2021/05/18 07:10:38;;;;;;;1.40;1.30;;;;;;;10.62;83.72;97773.09;4987021;28;20228;-75
2021/05/18 07:13:05;;;;;;;1.30;1.30;;;;;;;10.55;83.35;97772.94;4990381;28;20209;-76
2021/05/18 07:15:33;;;;;;;1.30;1.30;;;;;;;10.87;82.51;97780.97;4989274;28;20216;-74
2021/05/18 07:18:00;;;;;;;2.90;1.50;;;;;;;10.67;81.84;97781.34;4989710;28;20684;-77
2021/05/18 07:20:30;;;;;;;1.73;1.43;;;;;;;10.92;81.71;97773.31;4989575;28;20209;-74
2021/05/18 07:23:00;;;;;;;1.93;1.27;;;;;;;10.89;80.81;97781.63;4989369;28;20221;-77
2021/05/18 07:25:27;;;;;;;1.17;1.13;;;;;;;10.88;80.96;97772.03;4988473;28;20202;-75
2021/05/18 07:27:55;;;;;;;1.33;1.33;;;;;;;11.05;79.47;97775.44;4988704;28;20228;-74
2021/05/18 07:30:22;;;;;;;2.13;1.20;;;;;;;11.50;78.15;97775.69;4989761;28;20621;-73
2021/05/18 07:32:50;;;;;;;0.80;0.80;;;;;;;11.67;77.13;97775.59;4985730;28;20225;-73
2021/05/18 07:35:17;;;;;;;1.17;1.07;;;;;;;11.82;76.35;97778.31;4989477;28;20688;-76
2021/05/18 07:37:46;;;;;;;1.23;1.23;;;;;;;11.89;75.03;97771.28;4988542;28;20224;-75
2021/05/18 07:40:14;;;;;;;1.63;1.47;;;;;;;12.24;73.88;97773.50;4987906;28;20256;-71
2021/05/18 07:42:41;;;;;;;1.73;1.27;;;;;;;12.41;72.71;97771.53;4987924;28;20228;-74
2021/05/18 07:45:09;;;;;;;1.37;1.07;;;;;;;12.56;71.76;97768.88;4987499;28;20220;-75
2021/05/18 07:47:38;;;;;;;1.27;1.10;;;;;;;12.57;71.73;97774.03;4986983;28;20212;-74
2021/05/18 07:50:09;;;;;;;3.10;1.40;;;;;;;12.28;69.04;97772.97;4986166;28;20225;-77
2021/05/18 08:01:06;;;;;;;1.13;1.13;;;;;;;11.98;70.10;97772.06;4988802;28;21207;-74
2021/05/18 08:06:19;;;;;;;1.90;1.50;;;;;;;12.15;70.95;97772.78;4988852;28;20212;-74
2021/05/18 08:08:47;;;;;;;1.77;1.63;;;;;;;11.97;72.51;97775.72;4987692;28;20205;-73
2021/05/18 08:11:15;;;;;;;1.70;1.10;;;;;;;11.95;71.28;97775.06;4989253;28;20233;-74
2021/05/18 08:13:53;;;;;;;1.53;1.40;;;;;;;12.21;70.64;97771.22;4988424;28;20204;-73
2021/05/18 08:19:33;;;;;;;1.40;1.30;;;;;;;12.69;68.43;97779.72;4982052;28;20645;-76
2021/05/18 08:22:27;;;;;;;1.60;1.40;;;;;;;12.65;67.97;97775.75;4982885;28;20253;-73
2021/05/18 10:24:29;;;;;;;1.00;1.00;;;;;;;12.26;65.89;97742.25;4983303;28;20213;-76
2021/05/18 10:27:14;;;;;;;1.87;1.67;;;;;;;11.23;83.22;97743.34;4983303;28;20205;-75
2021/05/18 10:34:50;;;;;;;4.73;1.77;;;;;;;10.11;87.20;97734.41;4983544;28;20206;-76
2021/05/18 10:37:35;;;;;;;1.90;1.80;;;;;;;10.06;85.63;97749.97;4984021;28;20682;-74
2021/05/18 10:40:25;;;;;;;1.90;1.20;;;;;;;9.92;82.41;97750.63;4982160;28;20216;-74
2021/05/18 10:43:31;;;;;;;1.40;1.10;;;;;;;9.77;85.83;97759.25;4982616;28;20324;-74
2021/05/18 10:46:27;;;;;;;0.73;0.73;;;;;;;9.80;85.61;97747.47;4981532;28;20205;-75
2021/05/18 10:49:05;;;;;;;0.93;0.93;;;;;;;9.62;83.62;97740.53;4980445;28;20227;-76
2021/05/18 10:51:56;;;;;;;0.80;0.80;;;;;;;10.24;83.37;97743.66;4983067;28;20253;-73
2021/05/18 10:54:28;;;;;;;0.90;0.90;;;;;;;10.81;83.13;97737.41;4981695;28;20198;-73
2021/05/18 10:57:10;;;;;;;1.27;0.70;;;;;;;11.36;83.26;97721.53;4980735;28;20264;-74
2021/05/18 10:59:40;;;;;;;1.07;0.63;;;;;;;12.65;74.85;97713.81;4981717;28;20220;-73
2021/05/18 11:02:11;;;;;;;0.50;0.50;;;;;;;12.85;70.59;97711.41;4982899;28;20309;-74
2021/05/18 11:04:40;;;;;;;0.30;0.30;;;;;;;14.50;66.08;97705.34;4982939;28;20216;-72
2021/05/18 11:07:09;;;;;;;0.67;0.30;;;;;;;14.81;63.96;97700.59;4982756;28;20206;-74
2021/05/18 11:09:37;;;;;;;0.30;0.30;;;;;;;14.87;62.06;97702.47;4983612;28;20204;-76
2021/05/18 11:12:09;;;;;;;1.43;0.50;;;;;;;15.03;53.36;97698.63;4983700;28;20233;-75
2021/05/18 11:14:45;;;;;;;0.33;0.33;;;;;;;13.99;54.40;97701.09;4983278;28;20397;-74
2021/05/18 11:17:21;;;;;;;0.97;0.73;;;;;;;14.72;57.00;97702.59;4982960;28;20208;-72
2021/05/18 11:20:05;;;;;;;0.83;0.57;;;;;;;14.21;55.36;97693.88;4983491;28;20248;-74
2021/05/18 11:25:40;;;;;;;2.47;0.87;;;;;;;14.44;53.85;97711.47;4981927;28;20205;-75
2021/05/18 11:28:09;;;;;;;2.67;1.00;;;;;;;14.24;54.99;97696.16;4982364;28;20206;-74
2021/05/18 11:30:38;;;;;;;1.47;1.10;;;;;;;14.95;54.25;97693.47;4981714;28;20202;-74
2021/05/18 11:33:06;;;;;;;1.20;1.10;;;;;;;14.22;54.94;97700.03;4982528;28;20241;-75
2021/05/18 11:35:34;;;;;;;1.00;1.00;;;;;;;13.47;59.63;97698.63;4982737;28;20213;-74
2021/05/18 11:38:10;;;;;;;1.40;1.10;;;;;;;12.93;60.59;97705.16;4982104;28;20202;-75
2021/05/18 11:40:40;;;;;;;1.23;1.23;;;;;;;12.57;61.84;97712.88;4981806;28;20877;-75
2021/05/18 11:43:15;;;;;;;2.80;1.50;;;;;;;12.35;62.54;97713.78;4982907;28;20675;-72
2021/05/18 11:45:45;;;;;;;2.00;1.80;;;;;;;12.58;62.66;97716.34;4981370;28;20209;-75
2021/05/18 11:48:14;;;;;;;1.13;1.10;;;;;;;12.53;64.19;97710.78;4982503;28;20304;-74
2021/05/18 11:50:44;;;;;;;1.00;1.00;;;;;;;12.64;65.77;97712.16;4982351;28;20216;-74
2021/05/18 11:53:33;;;;;;;2.33;1.20;;;;;;;12.95;63.99;97717.25;4982461;28;20218;-75
2021/05/18 11:56:23;;;;;;;0.90;0.90;;;;;;;13.67;61.23;97713.94;4980769;28;20216;-74
2021/05/18 11:59:05;;;;;;;1.00;0.90;;;;;;;13.61;60.05;97720.84;4984115;28;20693;-72
2021/05/18 12:01:35;;;;;;;2.60;1.27;;;;;;;13.55;58.64;97714.47;4986534;28;20708;-76
2021/05/18 12:04:05;;;;;;;0.83;0.83;;;;;;;14.10;53.99;97705.88;4983323;28;20237;-76
2021/05/18 12:06:39;;;;;;;0.90;0.90;;;;;;;14.41;50.92;97710.00;4984883;28;20679;-74
2021/05/18 12:09:09;;;;;;;0.90;0.90;;;;;;;14.26;54.22;97701.31;4984018;28;20593;-75
2021/05/18 12:11:37;;;;;;;0.60;0.60;;;;;;;14.41;50.45;97706.53;4984853;28;20611;-76
2021/05/18 12:14:08;;;;;;;0.60;0.60;;;;;;;15.57;48.47;97696.91;4986324;28;20221;-75
2021/05/18 12:16:42;;;;;;;0.87;0.50;;;;;;;15.60;47.13;97703.72;4986533;28;20202;-74
2021/05/18 12:19:11;;;;;;;0.63;0.40;;;;;;;16.04;44.50;97698.81;4986011;28;20316;-74
2021/05/18 12:21:39;;;;;;;0.77;0.63;;;;;;;16.95;42.60;97700.84;4984857;28;20324;-76
2021/05/18 12:24:12;;;;;;;0.40;0.40;;;;;;;16.18;41.49;97697.78;4984684;28;20202;-76
2021/05/18 12:26:49;;;;;;;0.60;0.60;;;;;;;16.67;42.01;97686.75;4986313;28;20264;-75
2021/05/18 12:29:28;;;;;;;1.20;0.50;;;;;;;17.27;42.08;97685.72;4985888;28;20670;-73
2021/05/18 12:32:21;;;;;;;0.50;0.50;;;;;;;16.97;40.88;97690.75;4986007;28;20325;-75
2021/05/18 12:34:50;;;;;;;1.60;0.60;;;;;;;17.30;39.65;97687.13;4986444;28;20210;-76
2021/05/18 12:37:18;;;;;;;0.50;0.50;;;;;;;17.28;41.07;97670.47;4986132;28;20212;-78
2021/05/18 12:39:47;;;;;;;0.43;0.43;;;;;;;16.02;44.41;97680.31;4985383;28;20252;-74
2021/05/18 12:42:24;;;;;;;0.60;0.60;;;;;;;16.62;45.17;97682.03;4984270;28;20652;-75
2021/05/18 12:44:55;;;;;;;0.80;0.70;;;;;;;17.05;42.87;97686.03;4985594;28;20212;-76
2021/05/18 12:47:30;;;;;;;3.60;0.93;;;;;;;16.35;44.73;97684.81;4984787;28;20205;-75
2021/05/18 12:49:58;;;;;;;0.70;0.60;;;;;;;16.48;46.47;97683.94;4985372;28;20445;-78
2021/05/18 12:52:37;;;;;;;1.10;1.10;;;;;;;15.97;45.93;97689.97;4984805;28;20229;-76
2021/05/18 12:55:16;;;;;;;0.80;0.80;;;;;;;15.79;47.35;97683.38;4984777;28;20214;-73
2021/05/18 12:57:52;;;;;;;3.03;0.87;;;;;;;15.75;48.52;97672.28;4981796;28;20214;-77
2021/05/18 13:00:24;;;;;;;1.00;0.90;;;;;;;16.00;48.79;97673.53;4981154;28;20770;-75
2021/05/18 13:02:54;;;;;;;0.87;0.77;;;;;;;16.61;47.57;97671.56;4978779;28;20218;-77
2021/05/18 13:05:26;;;;;;;1.13;0.80;;;;;;;16.22;48.10;97668.75;4982520;28;20580;-75
2021/05/18 13:08:09;;;;;;;0.50;0.50;;;;;;;16.54;48.14;97670.78;4983718;28;20642;-73
2021/05/18 13:10:41;;;;;;;1.40;0.80;;;;;;;16.94;47.38;97665.25;4979985;28;20213;-73
2021/05/18 13:13:09;;;;;;;1.43;0.70;;;;;;;16.37;50.37;97665.84;4985456;28;20323;-78
2021/05/18 13:15:38;;;;;;;1.57;1.00;;;;;;;15.75;50.66;97652.75;4985315;28;20205;-74
2021/05/18 13:18:09;;;;;;;1.30;1.00;;;;;;;16.67;49.41;97660.00;4984943;28;20299;-75
2021/05/18 13:20:50;;;;;;;1.10;1.00;;;;;;;16.95;48.45;97682.97;4985024;28;20288;-75
2021/05/18 13:23:26;;;;;;;1.50;1.13;;;;;;;17.97;45.82;97667.91;4981075;28;20201;-77
2021/05/18 13:28:39;;;;;;;1.83;0.73;;;;;;;19.52;40.20;97666.13;4985554;28;20205;-73
2021/05/18 13:31:07;;;;;;;0.67;0.50;;;;;;;20.02;36.66;97654.16;4984888;28;20229;-78
2021/05/18 13:33:36;;;;;;;1.50;0.80;;;;;;;19.53;37.73;97655.13;4982549;28;20208;-78
2021/05/18 13:36:04;;;;;;;0.80;0.80;;;;;;;19.31;36.49;97656.69;4985186;28;20221;-76
2021/05/18 13:38:33;;;;;;;0.63;0.63;;;;;;;19.41;36.38;97648.94;4978547;28;20241;-75
2021/05/18 13:41:01;;;;;;;0.80;0.80;;;;;;;19.55;37.49;97651.41;4984695;28;20213;-75
2021/05/18 13:43:29;;;;;;;2.23;1.03;;;;;;;18.84;38.63;97644.69;4984061;28;20622;-78
2021/05/18 13:45:57;;;;;;;1.30;0.63;;;;;;;18.15;39.63;97637.66;4981315;28;20272;-76
2021/05/18 13:48:24;;;;;;;1.80;1.03;;;;;;;17.96;39.24;97647.50;4984243;28;20293;-75
2021/05/18 13:50:53;;;;;;;4.13;1.00;;;;;;;17.30;42.08;97646.97;4984401;28;20491;-74
2021/05/18 13:53:22;;;;;;;2.03;0.87;;;;;;;16.68;44.75;97639.44;4980460;28;20257;-75
2021/05/18 13:55:51;;;;;;;1.17;0.70;;;;;;;17.35;43.32;97633.75;4981589;28;20381;-74
2021/05/18 13:58:18;;;;;;;1.17;0.73;;;;;;;17.81;42.44;97637.09;4983469;28;20627;-78
2021/05/18 14:00:46;;;;;;;0.70;0.70;;;;;;;16.48;44.81;97640.31;4982005;28;20218;-74
2021/05/18 14:03:14;;;;;;;2.30;0.80;;;;;;;15.70;46.52;97636.50;4983646;28;21024;-71
2021/05/18 14:05:41;;;;;;;3.40;1.30;;;;;;;15.32;48.56;97635.25;4982850;28;20304;-77
2021/05/18 14:08:26;;;;;;;1.27;1.07;;;;;;;14.99;51.04;97634.19;4983052;28;20209;-77
2021/05/18 14:10:56;;;;;;;1.60;1.10;;;;;;;16.94;47.28;97633.16;4983007;28;20256;-76
2021/05/18 14:13:25;;;;;;;1.30;1.10;;;;;;;18.55;42.75;97614.91;4981934;28;20764;-76
2021/05/18 14:15:53;;;;;;;0.73;0.70;;;;;;;19.30;39.94;97626.34;4983469;28;20206;-76
2021/05/18 14:18:20;;;;;;;0.83;0.67;;;;;;;19.22;36.51;97618.63;4982593;28;20205;-76
2021/05/18 14:20:49;;;;;;;1.37;0.80;;;;;;;20.66;34.98;97614.91;4980217;28;20210;-76
2021/05/18 14:23:21;;;;;;;3.07;1.30;;;;;;;19.66;37.87;97621.88;4984106;28;20210;-76
2021/05/18 14:25:50;;;;;;;1.00;0.80;;;;;;;18.98;40.33;97615.03;4984205;28;20201;-76
2021/05/18 14:28:33;;;;;;;1.00;0.80;;;;;;;18.32;41.65;97615.59;4976440;28;20209;-77
2021/05/18 14:31:00;;;;;;;0.90;0.83;;;;;;;19.44;37.62;97613.53;4978966;28;20214;-73
2021/05/18 14:33:28;;;;;;;0.70;0.70;;;;;;;20.03;35.93;97609.28;4977543;28;20733;-75
2021/05/18 14:35:55;;;;;;;0.60;0.60;;;;;;;20.73;32.75;97604.81;4983972;28;20221;-75
2021/05/18 14:38:24;;;;;;;0.50;0.40;;;;;;;21.22;30.43;97617.88;4977192;28;20210;-76
2021/05/18 14:42:47;;;;;;;0.60;0.57;;;;;;;21.30;29.16;97619.34;4979116;28;20567;-77
2021/05/18 14:44:08;;;;;;;0.50;0.50;;;;;;;19.65;31.13;97617.53;4981725;28;20210;-77
2021/05/18 14:46:44;;;;;;;1.33;0.70;;;;;;;18.55;34.38;97606.88;4983049;28;20206;-74
2021/05/18 14:54:54;;;;;;;3.40;1.03;;;;;;;20.37;31.68;97602.22;4982954;28;20237;-78
2021/05/18 14:57:22;;;;;;;1.90;1.23;;;;;;;20.34;32.91;97604.56;4981661;28;20220;-76
2021/05/18 14:59:50;;;;;;;0.70;0.70;;;;;;;19.74;33.06;97604.59;4979990;28;20198;-75
2021/05/18 15:02:18;;;;;;;0.93;0.93;;;;;;;20.33;31.07;97605.63;4981875;28;20235;-74
2021/05/18 15:04:46;;;;;;;1.00;0.80;;;;;;;21.14;30.60;97601.28;4981387;28;20749;-75
2021/05/18 15:07:13;;;;;;;2.10;1.27;;;;;;;21.56;30.46;97595.50;4981670;28;20210;-73
2021/05/18 15:09:41;;;;;;;0.73;0.60;;;;;;;21.82;29.47;97598.66;4980778;28;20210;-73
2021/05/18 15:12:09;;;;;;;1.07;0.60;;;;;;;22.22;28.42;97592.19;4983686;28;20265;-71
2021/05/18 15:14:38;;;;;;;1.47;0.90;;;;;;;22.08;29.23;97599.00;4983384;28;20237;-71
2021/05/18 15:17:06;;;;;;;1.33;0.70;;;;;;;20.00;32.49;97612.44;4983516;28;20221;-70
2021/05/18 15:19:34;;;;;;;1.37;0.50;;;;;;;18.94;34.70;97615.47;4982584;28;20212;-71
2021/05/18 15:22:01;;;;;;;1.50;0.70;;;;;;;18.16;35.66;97617.00;4983150;28;20783;-70
2021/05/18 15:24:29;;;;;;;0.80;0.80;;;;;;;16.97;37.70;97615.81;4981410;28;20642;-71
2021/05/18 15:26:57;;;;;;;0.67;0.67;;;;;;;15.94;40.36;97620.91;4982663;28;20202;-70
2021/05/18 15:29:24;;;;;;;0.70;0.70;;;;;;;15.53;41.39;97612.88;4981228;28;20405;-69
2021/05/18 15:31:53;;;;;;;1.47;1.37;;;;;;;15.54;41.96;97619.06;4986239;28;20240;-71
2021/05/18 15:34:21;;;;;;;2.73;1.90;;;;;;;14.89;44.28;97623.06;4984889;28;20209;-70
2021/05/18 15:36:49;;;;;;;1.70;1.20;;;;;;;14.43;47.93;97641.31;4986317;28;20812;-70
2021/05/18 15:39:16;;;;;;;1.30;1.20;;;;;;;14.12;49.64;97636.44;4986727;28;20197;-71
2021/05/18 15:41:44;;;;;;;3.90;0.90;;;;;;;14.01;50.65;97651.91;4983282;28;20473;-70
2021/05/18 15:44:12;;;;;;;0.50;0.50;;;;;;;13.83;49.59;97652.44;4985563;28;20420;-69
2021/05/18 15:46:40;;;;;;;1.80;0.70;;;;;;;13.10;49.10;97687.97;4984971;28;20300;-70
2021/05/18 15:49:09;;;;;;;0.83;0.70;;;;;;;13.17;49.68;97666.75;4983859;28;20218;-71
2021/05/18 15:51:36;;;;;;;0.50;0.50;;;;;;;12.98;52.90;97669.00;4986394;28;20320;-70
2021/05/18 15:54:05;;;;;;;0.70;0.70;;;;;;;13.44;57.63;97659.03;4984134;28;20422;-71
2021/05/18 15:56:33;;;;;;;1.30;0.60;;;;;;;15.37;62.72;97656.03;4986044;28;20910;-71
2021/05/18 15:59:01;;;;;;;1.53;0.93;;;;;;;17.39;55.27;97655.56;4983176;28;20214;-69